sensor_id;sensor_type;location;lat;lon;timestamp;pressure;altitude;pressure_sealevel;temperature;humidity
55317;BME280;41178;48.956;8.130;2023-06-10T00:03:50;99467.13;;;20.69;40.48
55317;BME280;41178;48.956;8.130;2023-06-10T00:08:54;99457.22;;;20.53;41.19
55317;BME280;41178;48.956;8.130;2023-06-10T00:13:56;99444.03;;;21.10;40.46
55317;BME280;41178;48.956;8.130;2023-06-10T00:18:59;99466.25;;;20.31;41.63
55317;BME280;41178;48.956;8.130;2023-06-10T00:24:05;99461.13;;;20.67;40.85
55317;BME280;41178;48.956;8.130;2023-06-10T00:29:08;99459.53;;;20.72;41.65
55317;BME280;41178;48.956;8.130;2023-06-10T00:34:10;99448.25;;;20.90;40.90
55317;BME280;41178;48.956;8.130;2023-06-10T00:39:11;99476.72;;;20.77;41.08
55317;BME280;41178;48.956;8.130;2023-06-10T00:44:13;99476.50;;;20.02;42.18
55317;BME280;41178;48.956;8.130;2023-06-10T00:49:15;99475.50;;;20.63;41.35
55317;BME280;41178;48.956;8.130;2023-06-10T00:54:18;99456.72;;;20.89;41.27
55317;BME280;41178;48.956;8.130;2023-06-10T00:59:21;99459.00;;;21.07;40.59
55317;BME280;41178;48.956;8.130;2023-06-10T01:04:22;99475.03;;;19.89;42.11
55317;BME280;41178;48.956;8.130;2023-06-10T01:09:34;99445.34;;;21.02;41.28
55317;BME280;41178;48.956;8.130;2023-06-10T01:14:37;99468.75;;;20.71;41.33
55317;BME280;41178;48.956;8.130;2023-06-10T01:19:40;99458.00;;;21.29;40.78
55317;BME280;41178;48.956;8.130;2023-06-10T01:24:42;99479.50;;;20.23;42.33
55317;BME280;41178;48.956;8.130;2023-06-10T01:35:31;99476.97;;;20.43;42.28
55317;BME280;41178;48.956;8.130;2023-06-10T01:40:34;99471.19;;;19.63;43.07
55317;BME280;41178;48.956;8.130;2023-06-10T01:45:35;99472.66;;;18.81;44.41
55317;BME280;41178;48.956;8.130;2023-06-10T01:50:37;99473.47;;;19.54;43.56
55317;BME280;41178;48.956;8.130;2023-06-10T01:55:39;99486.34;;;19.20;43.92
55317;BME280;41178;48.956;8.130;2023-06-10T02:00:41;99475.75;;;18.68;44.73
55317;BME280;41178;48.956;8.130;2023-06-10T02:05:43;99486.91;;;19.44;43.80
55317;BME280;41178;48.956;8.130;2023-06-10T02:10:45;99483.47;;;18.30;45.55
55317;BME280;41178;48.956;8.130;2023-06-10T02:15:47;99460.06;;;17.66;46.45
55317;BME280;41178;48.956;8.130;2023-06-10T02:20:49;99493.53;;;18.18;46.09
55317;BME280;41178;48.956;8.130;2023-06-10T02:25:50;99489.84;;;17.95;46.64
55317;BME280;41178;48.956;8.130;2023-06-10T02:30:52;99484.38;;;18.98;45.03
55317;BME280;41178;48.956;8.130;2023-06-10T02:35:55;99506.78;;;18.77;45.48
55317;BME280;41178;48.956;8.130;2023-06-10T02:40:56;99522.34;;;18.53;45.74
55317;BME280;41178;48.956;8.130;2023-06-10T02:45:58;99518.03;;;18.11;46.34
55317;BME280;41178;48.956;8.130;2023-06-10T02:51:00;99516.69;;;18.25;45.85
55317;BME280;41178;48.956;8.130;2023-06-10T02:56:02;99530.84;;;18.16;45.82
55317;BME280;41178;48.956;8.130;2023-06-10T03:01:04;99530.22;;;18.37;45.56
55317;BME280;41178;48.956;8.130;2023-06-10T03:06:06;99547.41;;;18.31;45.88
55317;BME280;41178;48.956;8.130;2023-06-10T03:11:08;99551.28;;;18.35;45.30
55317;BME280;41178;48.956;8.130;2023-06-10T03:16:10;99560.00;;;17.85;46.27
55317;BME280;41178;48.956;8.130;2023-06-10T03:21:13;99551.22;;;18.47;45.33
55317;BME280;41178;48.956;8.130;2023-06-10T03:26:15;99566.81;;;18.28;45.55
55317;BME280;41178;48.956;8.130;2023-06-10T03:31:18;99561.41;;;18.86;44.72
55317;BME280;41178;48.956;8.130;2023-06-10T03:36:19;99580.50;;;18.21;45.45
55317;BME280;41178;48.956;8.130;2023-06-10T03:41:21;99581.59;;;18.20;45.46
55317;BME280;41178;48.956;8.130;2023-06-10T03:46:23;99560.22;;;19.10;44.61
55317;BME280;41178;48.956;8.130;2023-06-10T03:51:25;99564.19;;;18.91;44.45
55317;BME280;41178;48.956;8.130;2023-06-10T03:56:27;99579.59;;;19.02;44.30
55317;BME280;41178;48.956;8.130;2023-06-10T04:01:29;99572.69;;;19.11;44.74
55317;BME280;41178;48.956;8.130;2023-06-10T04:06:33;99578.28;;;19.38;43.85
55317;BME280;41178;48.956;8.130;2023-06-10T04:11:35;99603.03;;;19.08;44.09
55317;BME280;41178;48.956;8.130;2023-06-10T04:16:37;99579.94;;;19.79;43.22
55317;BME280;41178;48.956;8.130;2023-06-10T04:21:39;99619.69;;;18.42;45.39
55317;BME280;41178;48.956;8.130;2023-06-10T04:26:41;99615.66;;;18.74;44.67
55317;BME280;41178;48.956;8.130;2023-06-10T04:31:43;99600.13;;;19.49;43.97
55317;BME280;41178;48.956;8.130;2023-06-10T04:36:45;99616.81;;;18.08;45.98
55317;BME280;41178;48.956;8.130;2023-06-10T04:41:46;99621.09;;;18.74;45.23
55317;BME280;41178;48.956;8.130;2023-06-10T04:46:48;99603.59;;;18.93;45.04
55317;BME280;41178;48.956;8.130;2023-06-10T04:51:50;99624.56;;;18.05;46.58
55317;BME280;41178;48.956;8.130;2023-06-10T04:56:52;99582.97;;;19.82;44.26
55317;BME280;41178;48.956;8.130;2023-06-10T05:01:55;99586.19;;;19.57;44.13
55317;BME280;41178;48.956;8.130;2023-06-10T05:06:58;99626.50;;;18.45;46.04
55317;BME280;41178;48.956;8.130;2023-06-10T05:12:00;99585.09;;;20.19;43.77
55317;BME280;41178;48.956;8.130;2023-06-10T05:17:02;99609.44;;;19.19;45.03
55317;BME280;41178;48.956;8.130;2023-06-10T05:22:04;99634.97;;;18.49;45.96
55317;BME280;41178;48.956;8.130;2023-06-10T05:27:05;99592.66;;;19.39;44.78
55317;BME280;41178;48.956;8.130;2023-06-10T05:32:08;99613.94;;;18.96;45.44
55317;BME280;41178;48.956;8.130;2023-06-10T05:37:10;99629.84;;;18.93;46.17
55317;BME280;41178;48.956;8.130;2023-06-10T05:42:12;99590.72;;;19.73;44.94
55317;BME280;41178;48.956;8.130;2023-06-10T05:47:14;99603.84;;;19.99;44.52
55317;BME280;41178;48.956;8.130;2023-06-10T05:52:16;99627.94;;;19.39;45.13
55317;BME280;41178;48.956;8.130;2023-06-10T05:57:18;99569.41;;;20.48;43.76
55317;BME280;41178;48.956;8.130;2023-06-10T06:02:19;99582.25;;;20.80;43.37
55317;BME280;41178;48.956;8.130;2023-06-10T06:07:21;99555.16;;;21.71;41.96
55317;BME280;41178;48.956;8.130;2023-06-10T06:12:23;99563.09;;;21.77;41.70
55317;BME280;41178;48.956;8.130;2023-06-10T06:17:25;99533.69;;;22.84;41.08
55317;BME280;41178;48.956;8.130;2023-06-10T06:22:27;99556.16;;;22.07;42.03
55317;BME280;41178;48.956;8.130;2023-06-10T06:27:28;99545.16;;;22.65;40.79
55317;BME280;41178;48.956;8.130;2023-06-10T06:32:30;99638.28;;;21.14;41.71
55317;BME280;41178;48.956;8.130;2023-06-10T06:37:32;99623.56;;;21.10;43.05
55317;BME280;41178;48.956;8.130;2023-06-10T06:42:34;99641.94;;;20.92;42.83
55317;BME280;41178;48.956;8.130;2023-06-10T06:47:35;99554.50;;;21.96;42.22
55317;BME280;41178;48.956;8.130;2023-06-10T06:52:37;99641.16;;;20.25;43.78
55317;BME280;41178;48.956;8.130;2023-06-10T06:57:39;99598.63;;;21.55;42.51
55317;BME280;41178;48.956;8.130;2023-06-10T07:02:40;99547.22;;;22.22;41.48
55317;BME280;41178;48.956;8.130;2023-06-10T07:07:43;99506.16;;;22.75;41.00
55317;BME280;41178;48.956;8.130;2023-06-10T07:12:44;99530.97;;;22.84;41.12
55317;BME280;41178;48.956;8.130;2023-06-10T07:17:46;99511.59;;;22.96;40.87
55317;BME280;41178;48.956;8.130;2023-06-10T07:22:48;99507.41;;;23.70;40.69
55317;BME280;41178;48.956;8.130;2023-06-10T07:27:49;99535.31;;;23.26;40.53
55317;BME280;41178;48.956;8.130;2023-06-10T07:32:51;99528.22;;;23.40;41.27
55317;BME280;41178;48.956;8.130;2023-06-10T07:37:53;99574.44;;;22.07;42.14
55317;BME280;41178;48.956;8.130;2023-06-10T07:42:55;99472.47;;;24.57;40.17
55317;BME280;41178;48.956;8.130;2023-06-10T07:47:57;99494.97;;;23.93;40.73
55317;BME280;41178;48.956;8.130;2023-06-10T07:52:58;99568.34;;;22.83;40.88
55317;BME280;41178;48.956;8.130;2023-06-10T07:58:00;99536.72;;;23.13;40.65
55317;BME280;41178;48.956;8.130;2023-06-10T08:03:02;99477.88;;;24.27;40.45
55317;BME280;41178;48.956;8.130;2023-06-10T08:08:04;99503.50;;;23.81;40.42
55317;BME280;41178;48.956;8.130;2023-06-10T08:13:08;99492.53;;;24.42;40.15
55317;BME280;41178;48.956;8.130;2023-06-10T08:18:10;99483.44;;;24.86;39.42
55317;BME280;41178;48.956;8.130;2023-06-10T08:23:11;99505.28;;;24.57;39.37
55317;BME280;41178;48.956;8.130;2023-06-10T08:28:13;99486.03;;;24.32;39.63
55317;BME280;41178;48.956;8.130;2023-06-10T08:33:15;99513.66;;;24.31;39.73
55317;BME280;41178;48.956;8.130;2023-06-10T08:38:17;99432.88;;;25.56;38.58
55317;BME280;41178;48.956;8.130;2023-06-10T08:43:37;99462.09;;;25.41;37.92
55317;BME280;41178;48.956;8.130;2023-06-10T08:48:43;99501.09;;;24.69;38.93
55317;BME280;41178;48.956;8.130;2023-06-10T08:54:11;99459.69;;;25.35;38.85
55317;BME280;41178;48.956;8.130;2023-06-10T08:59:15;99445.25;;;25.53;37.18
55317;BME280;41178;48.956;8.130;2023-06-10T09:04:20;99453.00;;;25.22;38.02
55317;BME280;41178;48.956;8.130;2023-06-10T09:09:22;99510.75;;;24.07;38.41
55317;BME280;41178;48.956;8.130;2023-06-10T09:14:25;99444.53;;;25.18;38.15
55317;BME280;41178;48.956;8.130;2023-06-10T09:19:28;99448.28;;;25.71;37.40
55317;BME280;41178;48.956;8.130;2023-06-10T09:24:30;99393.94;;;26.82;36.68
55317;BME280;41178;48.956;8.130;2023-06-10T09:29:45;99419.41;;;26.16;37.48
55317;BME280;41178;48.956;8.130;2023-06-10T09:34:48;99389.06;;;26.79;36.73
55317;BME280;41178;48.956;8.130;2023-06-10T09:40:07;99461.22;;;25.17;37.98
55317;BME280;41178;48.956;8.130;2023-06-10T09:45:10;99404.41;;;26.47;36.91
55317;BME280;41178;48.956;8.130;2023-06-10T09:50:13;99381.25;;;26.86;36.21
55317;BME280;41178;48.956;8.130;2023-06-10T09:55:15;99450.78;;;25.91;37.38
55317;BME280;41178;48.956;8.130;2023-06-10T10:00:17;99378.47;;;27.55;35.37
55317;BME280;41178;48.956;8.130;2023-06-10T10:05:20;99442.69;;;26.38;36.27
55317;BME280;41178;48.956;8.130;2023-06-10T10:10:25;99422.34;;;26.25;36.86
55317;BME280;41178;48.956;8.130;2023-06-10T10:15:29;99391.84;;;26.60;36.33
55317;BME280;41178;48.956;8.130;2023-06-10T10:20:35;99455.06;;;25.78;36.93
55317;BME280;41178;48.956;8.130;2023-06-10T10:25:40;99353.25;;;27.90;35.85
55317;BME280;41178;48.956;8.130;2023-06-10T10:30:47;99355.13;;;27.80;35.10
55317;BME280;41178;48.956;8.130;2023-06-10T10:35:50;99408.41;;;27.15;35.56
55317;BME280;41178;48.956;8.130;2023-06-10T10:40:53;99387.28;;;27.66;35.59
55317;BME280;41178;48.956;8.130;2023-06-10T10:46:02;99362.25;;;28.27;34.63
55317;BME280;41178;48.956;8.130;2023-06-10T10:51:05;99373.75;;;27.83;35.34
55317;BME280;41178;48.956;8.130;2023-06-10T10:56:12;99420.69;;;26.90;36.16
55317;BME280;41178;48.956;8.130;2023-06-10T11:06:22;99387.34;;;26.97;37.14
55317;BME280;41178;48.956;8.130;2023-06-10T11:11:26;99385.06;;;26.71;36.42
55317;BME280;41178;48.956;8.130;2023-06-10T11:16:29;99343.16;;;27.85;36.20
55317;BME280;41178;48.956;8.130;2023-06-10T11:21:31;99431.13;;;26.41;36.32
55317;BME280;41178;48.956;8.130;2023-06-10T11:26:33;99431.97;;;26.74;35.00
55317;BME280;41178;48.956;8.130;2023-06-10T11:31:40;99348.06;;;27.88;34.17
55317;BME280;41178;48.956;8.130;2023-06-10T11:36:43;99332.53;;;28.15;34.41
55317;BME280;41178;48.956;8.130;2023-06-10T11:41:47;99372.91;;;27.83;34.43
55317;BME280;41178;48.956;8.130;2023-06-10T11:46:50;99401.94;;;27.61;34.28
55317;BME280;41178;48.956;8.130;2023-06-10T11:51:53;99444.25;;;26.77;34.53
55317;BME280;41178;48.956;8.130;2023-06-10T11:56:58;99406.44;;;27.57;34.54
55317;BME280;41178;48.956;8.130;2023-06-10T12:02:00;99401.56;;;27.54;34.39
55317;BME280;41178;48.956;8.130;2023-06-10T12:07:02;99368.19;;;28.42;33.80
55317;BME280;41178;48.956;8.130;2023-06-10T12:12:05;99382.78;;;27.84;34.02
55317;BME280;41178;48.956;8.130;2023-06-10T12:17:10;99376.75;;;28.18;34.15
55317;BME280;41178;48.956;8.130;2023-06-10T12:22:12;99370.69;;;28.08;34.04
55317;BME280;41178;48.956;8.130;2023-06-10T12:27:14;99368.75;;;28.08;34.16
55317;BME280;41178;48.956;8.130;2023-06-10T12:32:16;99373.31;;;28.13;33.70
55317;BME280;41178;48.956;8.130;2023-06-10T12:37:18;99361.31;;;28.31;33.23
55317;BME280;41178;48.956;8.130;2023-06-10T12:42:22;99386.69;;;28.05;33.46
55317;BME280;41178;48.956;8.130;2023-06-10T12:47:35;99336.53;;;28.94;32.56
55317;BME280;41178;48.956;8.130;2023-06-10T12:52:37;99373.75;;;28.29;33.38
55317;BME280;41178;48.956;8.130;2023-06-10T12:57:47;99403.97;;;27.69;32.29
55317;BME280;41178;48.956;8.130;2023-06-10T13:02:49;99374.91;;;28.14;33.01
55317;BME280;41178;48.956;8.130;2023-06-10T13:07:52;99353.22;;;28.97;32.16
55317;BME280;41178;48.956;8.130;2023-06-10T13:12:54;99349.31;;;28.90;32.67
55317;BME280;41178;48.956;8.130;2023-06-10T13:17:56;99351.56;;;28.88;32.38
55317;BME280;41178;48.956;8.130;2023-06-10T13:22:58;99352.09;;;28.99;32.02
55317;BME280;41178;48.956;8.130;2023-06-10T13:27:59;99357.22;;;28.83;32.48
55317;BME280;41178;48.956;8.130;2023-06-10T13:33:01;99340.34;;;29.24;32.58
55317;BME280;41178;48.956;8.130;2023-06-10T13:38:03;99325.44;;;29.51;30.34
55317;BME280;41178;48.956;8.130;2023-06-10T13:43:05;99333.50;;;29.13;31.50
55317;BME280;41178;48.956;8.130;2023-06-10T13:48:06;99363.84;;;28.82;31.52
55317;BME280;41178;48.956;8.130;2023-06-10T13:53:08;99379.28;;;28.15;31.71
55317;BME280;41178;48.956;8.130;2023-06-10T13:58:10;99287.88;;;29.73;31.21
55317;BME280;41178;48.956;8.130;2023-06-10T14:03:12;99332.34;;;29.05;30.98
55317;BME280;41178;48.956;8.130;2023-06-10T14:08:13;99349.25;;;28.81;30.82
55317;BME280;41178;48.956;8.130;2023-06-10T14:13:16;99316.53;;;29.37;31.02
55317;BME280;41178;48.956;8.130;2023-06-10T14:18:17;99320.44;;;29.36;31.03
55317;BME280;41178;48.956;8.130;2023-06-10T14:23:19;99342.59;;;29.13;31.18
55317;BME280;41178;48.956;8.130;2023-06-10T14:28:21;99333.06;;;29.37;31.44
55317;BME280;41178;48.956;8.130;2023-06-10T14:33:23;99333.88;;;29.29;30.93
55317;BME280;41178;48.956;8.130;2023-06-10T14:38:24;99332.09;;;29.24;31.44
55317;BME280;41178;48.956;8.130;2023-06-10T14:43:26;99318.34;;;29.68;31.13
55317;BME280;41178;48.956;8.130;2023-06-10T14:48:28;99298.41;;;29.80;30.49
55317;BME280;41178;48.956;8.130;2023-06-10T14:53:29;99340.78;;;29.09;31.03
55317;BME280;41178;48.956;8.130;2023-06-10T14:58:31;99296.25;;;29.94;30.75
55317;BME280;41178;48.956;8.130;2023-06-10T15:03:33;99363.75;;;29.04;31.26
55317;BME280;41178;48.956;8.130;2023-06-10T15:08:35;99335.47;;;29.30;30.72
55317;BME280;41178;48.956;8.130;2023-06-10T15:13:37;99350.91;;;28.82;31.32
55317;BME280;41178;48.956;8.130;2023-06-10T15:18:38;99295.63;;;29.88;30.94
55317;BME280;41178;48.956;8.130;2023-06-10T15:23:40;99326.47;;;28.98;31.27
55317;BME280;41178;48.956;8.130;2023-06-10T15:28:42;99303.22;;;29.22;31.37
55317;BME280;41178;48.956;8.130;2023-06-10T15:33:44;99263.94;;;30.12;31.35
55317;BME280;41178;48.956;8.130;2023-06-10T15:38:48;99279.41;;;30.04;30.42
55317;BME280;41178;48.956;8.130;2023-06-10T15:43:49;99291.91;;;29.58;30.08
55317;BME280;41178;48.956;8.130;2023-06-10T15:48:51;99336.28;;;28.41;31.63
55317;BME280;41178;48.956;8.130;2023-06-10T15:53:54;99295.31;;;29.20;31.30
55317;BME280;41178;48.956;8.130;2023-06-10T15:58:56;99305.66;;;29.23;31.21
55317;BME280;41178;48.956;8.130;2023-06-10T16:03:58;99281.69;;;29.50;31.18
55317;BME280;41178;48.956;8.130;2023-06-10T16:09:00;99294.47;;;29.20;30.11
55317;BME280;41178;48.956;8.130;2023-06-10T16:14:01;99328.78;;;28.33;31.14
55317;BME280;41178;48.956;8.130;2023-06-10T16:19:04;99312.78;;;28.35;31.21
55317;BME280;41178;48.956;8.130;2023-06-10T16:24:07;99281.06;;;29.62;30.21
55317;BME280;41178;48.956;8.130;2023-06-10T16:29:09;99292.72;;;29.59;30.98
55317;BME280;41178;48.956;8.130;2023-06-10T16:34:11;99293.84;;;29.58;30.32
55317;BME280;41178;48.956;8.130;2023-06-10T16:39:13;99303.25;;;29.83;30.14
55317;BME280;41178;48.956;8.130;2023-06-10T16:44:14;99319.59;;;29.18;30.67
55317;BME280;41178;48.956;8.130;2023-06-10T16:49:18;99317.97;;;29.17;30.61
55317;BME280;41178;48.956;8.130;2023-06-10T16:54:20;99314.78;;;29.59;31.00
55317;BME280;41178;48.956;8.130;2023-06-10T16:59:21;99306.97;;;29.52;30.40
55317;BME280;41178;48.956;8.130;2023-06-10T17:04:23;99298.34;;;29.97;29.29
55317;BME280;41178;48.956;8.130;2023-06-10T17:09:25;99320.75;;;29.43;30.18
55317;BME280;41178;48.956;8.130;2023-06-10T17:14:27;99340.06;;;28.86;30.74
55317;BME280;41178;48.956;8.130;2023-06-10T17:19:30;99338.56;;;29.28;30.27
55317;BME280;41178;48.956;8.130;2023-06-10T17:24:32;99325.81;;;29.59;30.26
55317;BME280;41178;48.956;8.130;2023-06-10T17:29:33;99336.97;;;29.45;30.39
55317;BME280;41178;48.956;8.130;2023-06-10T17:34:35;99354.34;;;28.96;30.84
55317;BME280;41178;48.956;8.130;2023-06-10T17:39:37;99315.72;;;29.98;30.16
55317;BME280;41178;48.956;8.130;2023-06-10T17:44:38;99330.16;;;29.77;30.68
55317;BME280;41178;48.956;8.130;2023-06-10T17:49:40;99329.53;;;29.98;30.86
55317;BME280;41178;48.956;8.130;2023-06-10T17:54:42;99353.97;;;29.29;30.78
55317;BME280;41178;48.956;8.130;2023-06-10T17:59:44;99348.47;;;29.38;31.42
55317;BME280;41178;48.956;8.130;2023-06-10T18:04:46;99369.00;;;28.74;31.66
55317;BME280;41178;48.956;8.130;2023-06-10T18:09:48;99356.38;;;29.13;31.32
55317;BME280;41178;48.956;8.130;2023-06-10T18:14:49;99381.16;;;27.83;32.13
55317;BME280;41178;48.956;8.130;2023-06-10T18:19:51;99361.50;;;29.06;31.35
55317;BME280;41178;48.956;8.130;2023-06-10T18:24:53;99374.72;;;28.87;31.38
55317;BME280;41178;48.956;8.130;2023-06-10T18:29:54;99374.72;;;28.87;31.33
55317;BME280;41178;48.956;8.130;2023-06-10T18:34:56;99379.59;;;28.58;32.16
55317;BME280;41178;48.956;8.130;2023-06-10T18:39:58;99366.09;;;29.20;31.66
55317;BME280;41178;48.956;8.130;2023-06-10T18:45:00;99383.50;;;28.35;32.12
55317;BME280;41178;48.956;8.130;2023-06-10T18:50:01;99402.75;;;28.35;32.19
55317;BME280;41178;48.956;8.130;2023-06-10T18:55:03;99408.69;;;28.28;32.02
55317;BME280;41178;48.956;8.130;2023-06-10T19:00:06;99398.88;;;28.90;32.22
55317;BME280;41178;48.956;8.130;2023-06-10T19:05:08;99418.22;;;28.76;31.96
55317;BME280;41178;48.956;8.130;2023-06-10T19:10:11;99406.59;;;28.79;32.26
55317;BME280;41178;48.956;8.130;2023-06-10T19:15:14;99417.06;;;28.68;32.42
55317;BME280;41178;48.956;8.130;2023-06-10T19:20:15;99419.34;;;28.66;32.44
55317;BME280;41178;48.956;8.130;2023-06-10T19:25:17;99431.19;;;28.08;33.19
55317;BME280;41178;48.956;8.130;2023-06-10T19:30:20;99423.09;;;28.48;32.88
55317;BME280;41178;48.956;8.130;2023-06-10T19:35:22;99441.16;;;28.40;32.71
55317;BME280;41178;48.956;8.130;2023-06-10T19:40:24;99463.13;;;27.81;33.21
55317;BME280;41178;48.956;8.130;2023-06-10T19:45:26;99468.13;;;27.37;33.94
55317;BME280;41178;48.956;8.130;2023-06-10T19:50:27;99471.53;;;26.87;34.59
55317;BME280;41178;48.956;8.130;2023-06-10T19:55:29;99466.59;;;27.73;33.64
55317;BME280;41178;48.956;8.130;2023-06-10T20:00:31;99457.88;;;27.93;33.56
55317;BME280;41178;48.956;8.130;2023-06-10T20:05:32;99494.59;;;25.72;36.08
55317;BME280;41178;48.956;8.130;2023-06-10T20:10:34;99495.59;;;25.81;35.96
55317;BME280;41178;48.956;8.130;2023-06-10T20:15:36;99472.59;;;26.53;35.70
55317;BME280;41178;48.956;8.130;2023-06-10T20:20:38;99492.50;;;26.07;36.25
55317;BME280;41178;48.956;8.130;2023-06-10T20:25:39;99491.44;;;26.60;36.06
55317;BME280;41178;48.956;8.130;2023-06-10T20:30:41;99507.06;;;26.27;36.45
55317;BME280;41178;48.956;8.130;2023-06-10T20:35:43;99490.84;;;26.63;36.04
55317;BME280;41178;48.956;8.130;2023-06-10T20:40:44;99513.91;;;26.62;36.29
55317;BME280;41178;48.956;8.130;2023-06-10T20:45:46;99527.88;;;25.36;38.01
55317;BME280;41178;48.956;8.130;2023-06-10T20:50:48;99505.94;;;26.28;36.99
55317;BME280;41178;48.956;8.130;2023-06-10T20:55:50;99522.16;;;25.81;37.59
55317;BME280;41178;48.956;8.130;2023-06-10T21:00:52;99510.66;;;26.03;37.72
55317;BME280;41178;48.956;8.130;2023-06-10T21:05:54;99556.59;;;24.75;39.02
55317;BME280;41178;48.956;8.130;2023-06-10T21:10:55;99519.09;;;26.07;37.90
55317;BME280;41178;48.956;8.130;2023-06-10T21:15:57;99572.97;;;24.80;38.78
55317;BME280;41178;48.956;8.130;2023-06-10T21:20:59;99581.47;;;24.29;39.80
55317;BME280;41178;48.956;8.130;2023-06-10T21:26:01;99557.94;;;25.41;38.92
55317;BME280;41178;48.956;8.130;2023-06-10T21:31:06;99576.03;;;24.73;39.67
55317;BME280;41178;48.956;8.130;2023-06-10T21:36:07;99554.38;;;25.41;38.96
55317;BME280;41178;48.956;8.130;2023-06-10T21:41:09;99576.03;;;24.24;40.82
55317;BME280;41178;48.956;8.130;2023-06-10T21:46:12;99576.75;;;24.84;39.44
55317;BME280;41178;48.956;8.130;2023-06-10T21:51:14;99584.97;;;24.40;40.38
55317;BME280;41178;48.956;8.130;2023-06-10T21:56:16;99560.97;;;25.40;38.97
55317;BME280;41178;48.956;8.130;2023-06-10T22:01:19;99581.44;;;25.47;38.57
55317;BME280;41178;48.956;8.130;2023-06-10T22:06:21;99592.72;;;25.06;39.08
55317;BME280;41178;48.956;8.130;2023-06-10T22:11:23;99604.34;;;23.68;41.02
55317;BME280;41178;48.956;8.130;2023-06-10T22:16:25;99589.59;;;24.89;39.21
55317;BME280;41178;48.956;8.130;2023-06-10T22:21:27;99598.50;;;24.65;39.59
55317;BME280;41178;48.956;8.130;2023-06-10T22:26:30;99601.66;;;23.47;41.60
55317;BME280;41178;48.956;8.130;2023-06-10T22:31:52;99583.66;;;24.27;40.13
55317;BME280;41178;48.956;8.130;2023-06-10T22:36:54;99583.00;;;23.85;40.57
55317;BME280;41178;48.956;8.130;2023-06-10T22:41:56;99612.47;;;23.93;39.40
55317;BME280;41178;48.956;8.130;2023-06-10T22:46:58;99576.50;;;25.20;38.41
55317;BME280;41178;48.956;8.130;2023-06-10T22:51:59;99615.03;;;24.45;39.18
55317;BME280;41178;48.956;8.130;2023-06-10T22:57:01;99643.16;;;23.34;40.11
55317;BME280;41178;48.956;8.130;2023-06-10T23:02:03;99607.69;;;24.35;39.78
55317;BME280;41178;48.956;8.130;2023-06-10T23:07:05;99644.44;;;23.93;39.40
55317;BME280;41178;48.956;8.130;2023-06-10T23:12:07;99610.34;;;24.95;38.82
55317;BME280;41178;48.956;8.130;2023-06-10T23:17:08;99640.81;;;24.23;39.25
55317;BME280;41178;48.956;8.130;2023-06-10T23:22:11;99674.72;;;22.78;40.98
55317;BME280;41178;48.956;8.130;2023-06-10T23:27:13;99644.78;;;23.45;41.01
55317;BME280;41178;48.956;8.130;2023-06-10T23:32:21;99634.97;;;23.29;41.03
55317;BME280;41178;48.956;8.130;2023-06-10T23:37:23;99656.19;;;23.01;40.38
55317;BME280;41178;48.956;8.130;2023-06-10T23:42:27;99630.56;;;23.74;40.35
55317;BME280;41178;48.956;8.130;2023-06-10T23:47:28;99669.75;;;22.02;41.75
55317;BME280;41178;48.956;8.130;2023-06-10T23:52:30;99636.84;;;23.13;40.58
55317;BME280;41178;48.956;8.130;2023-06-10T23:57:32;99637.88;;;22.76;41.50
